createdAt,value
2018-06-30T05:04:26.659Z,95036.63
2018-06-30T05:09:30.752Z,95039.31
2018-06-30T05:14:34.086Z,95035.52
2018-06-30T05:19:56.237Z,95044.94
2018-06-30T05:25:00.341Z,95046.00
2018-06-30T05:30:03.726Z,95046.67
2018-06-30T05:35:07.067Z,95054.92
2018-06-30T05:40:10.502Z,95058.05
2018-06-30T05:45:13.887Z,95048.54
2018-06-30T05:50:23.346Z,95044.80
2018-06-30T05:55:26.851Z,95043.09
2018-06-30T06:00:30.208Z,95035.98
2018-06-30T06:05:34.300Z,95032.00
2018-06-30T06:10:57.526Z,95038.36
2018-06-30T06:16:01.739Z,95039.23
2018-06-30T06:21:05.118Z,95043.92
2018-06-30T06:26:08.448Z,95053.12
2018-06-30T06:31:11.786Z,95048.05
2018-06-30T06:36:15.122Z,95058.56
2018-06-30T06:41:19.213Z,95068.89
2018-06-30T06:46:22.552Z,95061.80
2018-06-30T06:51:26.639Z,95063.48
2018-06-30T06:56:29.967Z,95062.13
2018-06-30T07:01:33.304Z,95060.09
2018-06-30T07:06:37.407Z,95063.93
2018-06-30T07:11:40.733Z,95063.86
2018-06-30T07:16:44.072Z,95065.48
2018-06-30T07:21:48.461Z,95064.91
2018-06-30T07:26:51.891Z,95065.98
2018-06-30T07:31:55.214Z,95073.34
2018-06-30T07:36:59.290Z,95067.40
2018-06-30T07:42:02.627Z,95068.95
2018-06-30T07:47:05.959Z,95073.69
2018-06-30T07:52:09.298Z,95069.74
2018-06-30T07:57:13.396Z,95063.23
2018-06-30T08:02:16.731Z,95065.67
2018-06-30T08:07:20.097Z,95067.18
2018-06-30T08:12:23.763Z,95065.66
2018-06-30T08:17:27.117Z,95062.27
2018-06-30T08:22:30.451Z,95069.02
2018-06-30T08:27:33.813Z,95071.16
2018-06-30T08:32:37.922Z,95079.06
2018-06-30T08:37:41.280Z,95076.27
2018-06-30T08:42:44.644Z,95080.64
2018-06-30T08:47:48.035Z,95076.94
2018-06-30T08:52:51.574Z,95077.55
2018-06-30T08:57:54.936Z,95075.80
2018-06-30T09:02:58.292Z,95070.08
2018-06-30T09:08:01.641Z,95078.48
2018-06-30T09:13:04.988Z,95076.72
2018-06-30T09:18:08.335Z,95075.52
2018-06-30T09:23:11.670Z,95077.26
2018-06-30T09:28:15.107Z,95069.55
2018-06-30T09:33:18.469Z,95067.28
2018-06-30T09:38:21.803Z,95069.97
2018-06-30T09:43:25.131Z,95072.95
2018-06-30T09:48:29.230Z,95073.20
2018-06-30T09:53:32.573Z,95080.61
2018-06-30T09:58:35.901Z,95075.30
2018-06-30T10:03:39.994Z,95072.66
2018-06-30T10:08:44.443Z,95068.01
2018-06-30T10:13:48.095Z,95070.50
2018-06-30T10:18:52.467Z,95062.73
2018-06-30T10:23:56.511Z,95057.87
2018-06-30T10:29:00.173Z,95059.81
2018-06-30T10:34:04.807Z,95047.86
2018-06-30T10:39:08.497Z,95050.06
2018-06-30T10:44:12.739Z,95046.83
2018-06-30T10:49:16.282Z,95047.03
2018-06-30T10:54:19.823Z,95046.66
2018-06-30T10:59:23.424Z,95040.95
2018-06-30T11:04:27.087Z,95042.62
2018-06-30T11:09:30.699Z,95040.52
2018-06-30T11:14:34.792Z,95030.55
2018-06-30T11:19:39.395Z,95037.36
2018-06-30T11:24:43.979Z,95030.80
2018-06-30T11:29:47.641Z,95025.05
2018-06-30T11:34:51.324Z,95019.89
2018-06-30T11:39:55.102Z,95027.58
2018-06-30T11:44:58.721Z,95022.89
2018-06-30T11:50:02.088Z,95020.19
2018-06-30T11:55:05.414Z,95020.07
2018-06-30T12:00:08.760Z,95017.28
2018-06-30T12:05:12.091Z,95009.23
2018-06-30T12:10:15.430Z,95008.24
2018-06-30T12:15:19.551Z,95009.28
2018-06-30T12:20:22.907Z,95009.78
2018-06-30T12:25:26.358Z,95007.75
2018-06-30T12:30:29.683Z,95003.89
2018-06-30T12:35:33.015Z,95002.63
2018-06-30T12:40:43.045Z,95001.42
2018-06-30T12:45:46.474Z,95005.30
2018-06-30T12:51:01.006Z,95002.45
2018-06-30T12:56:04.339Z,95001.80
2018-06-30T13:01:07.668Z,95004.27
2018-06-30T13:06:11.015Z,95009.33
2018-06-30T13:11:15.136Z,95003.80
2018-06-30T13:16:19.243Z,95001.95
2018-06-30T13:21:22.584Z,94993.99
2018-06-30T13:26:27.017Z,94996.02
2018-06-30T13:31:31.107Z,94992.87
2018-06-30T13:36:34.441Z,95000.21
2018-06-30T13:41:37.774Z,94995.88
2018-06-30T13:46:41.948Z,94999.83
2018-06-30T13:51:45.280Z,95002.18
2018-06-30T13:56:48.617Z,95005.36
2018-06-30T14:01:51.980Z,95000.72
2018-06-30T14:06:55.310Z,94995.06
2018-06-30T14:11:58.642Z,94996.97
2018-06-30T14:17:01.972Z,94988.31
2018-06-30T14:22:05.314Z,94989.30
2018-06-30T14:27:08.643Z,94991.12
2018-06-30T14:32:12.006Z,94997.88
2018-06-30T14:37:15.334Z,94990.81
2018-06-30T14:42:18.715Z,94996.01
2018-06-30T14:47:22.078Z,94994.58
2018-06-30T14:52:25.414Z,95000.06
2018-06-30T14:57:28.752Z,95005.68
2018-06-30T15:02:32.267Z,94992.28
2018-06-30T15:07:36.407Z,94988.84
2018-06-30T15:12:39.792Z,94987.34
2018-06-30T15:17:43.090Z,94995.27
2018-06-30T15:22:46.415Z,94995.82
2018-06-30T15:27:49.743Z,95003.93
2018-06-30T15:32:53.079Z,95000.13
2018-06-30T15:37:56.422Z,95003.32
2018-06-30T15:42:59.773Z,95006.06
2018-06-30T15:48:03.114Z,95000.13
2018-06-30T15:53:06.465Z,95006.97
2018-06-30T15:58:09.815Z,95005.69
2018-06-30T16:03:13.165Z,95001.63
2018-06-30T16:08:16.600Z,95001.45
2018-06-30T16:13:19.931Z,95001.84
2018-06-30T16:18:23.652Z,94993.06
2018-06-30T16:23:27.004Z,94990.98
2018-06-30T16:28:30.342Z,94991.64
2018-06-30T16:33:33.687Z,94994.59
2018-06-30T16:38:37.022Z,94990.42
2018-06-30T16:43:40.365Z,94994.84
2018-06-30T16:48:43.690Z,94996.77
2018-06-30T16:53:47.027Z,94993.78
2018-06-30T16:58:50.495Z,94993.57
2018-06-30T17:03:53.702Z,94991.03
2018-06-30T17:08:57.039Z,94991.09
2018-06-30T17:14:00.381Z,94998.91
2018-06-30T17:19:03.720Z,94989.03
2018-06-30T17:24:07.055Z,94991.52
2018-06-30T17:29:10.388Z,94997.88
2018-06-30T17:34:13.724Z,94994.64
2018-06-30T17:39:17.058Z,94994.08
2018-06-30T17:44:20.388Z,94997.55
2018-06-30T17:49:38.088Z,94996.98
2018-06-30T17:54:42.186Z,95004.17
2018-06-30T17:59:45.510Z,95006.23
2018-06-30T18:04:48.847Z,95004.86
2018-06-30T18:10:02.995Z,95018.50
2018-06-30T18:15:06.282Z,95019.83
2018-06-30T18:20:09.610Z,95024.86
2018-06-30T18:25:12.951Z,95022.52
2018-06-30T18:30:27.480Z,95018.94
2018-06-30T18:35:30.809Z,95024.55
2018-06-30T18:40:47.646Z,95025.58
2018-06-30T18:45:50.975Z,95027.54
2018-06-30T18:50:55.074Z,95022.09
2018-06-30T18:55:58.398Z,95036.27
2018-06-30T19:01:01.731Z,95038.98
2018-06-30T19:06:05.833Z,95034.88
2018-06-30T19:11:09.162Z,95039.28
2018-06-30T19:16:12.511Z,95048.80
2018-06-30T19:21:15.912Z,95055.58
2018-06-30T19:26:19.205Z,95065.87
2018-06-30T19:31:23.343Z,95072.17
2018-06-30T19:36:27.456Z,95079.92
2018-06-30T19:41:30.803Z,95077.75
2018-06-30T19:46:34.128Z,95085.98
2018-06-30T19:51:37.453Z,95091.53
2018-06-30T19:56:40.783Z,95096.88
2018-06-30T20:01:44.110Z,95092.63
2018-06-30T20:06:47.445Z,95085.43
2018-06-30T20:11:51.538Z,95090.39
2018-06-30T20:16:54.870Z,95093.47
2018-06-30T20:21:58.202Z,95089.69
2018-06-30T20:27:02.641Z,95099.77
2018-06-30T20:32:06.315Z,95103.84
2018-06-30T20:37:09.748Z,95103.31
2018-06-30T20:42:13.247Z,95099.03
2018-06-30T20:47:16.663Z,95100.47
2018-06-30T20:52:20.010Z,95104.23
2018-06-30T20:57:24.116Z,95104.55
2018-06-30T21:02:27.477Z,95103.28
2018-06-30T21:07:30.816Z,95108.76
2018-06-30T21:12:34.152Z,95114.84
2018-06-30T21:17:37.489Z,95108.11
2018-06-30T21:22:40.831Z,95109.58
2018-06-30T21:27:44.169Z,95103.13
2018-06-30T21:32:47.520Z,95115.80
2018-06-30T21:37:50.842Z,95114.34
2018-06-30T21:42:54.171Z,95124.25
2018-06-30T21:47:58.272Z,95121.83
2018-06-30T21:53:02.375Z,95129.41
2018-06-30T21:58:05.703Z,95135.48
2018-06-30T22:03:09.030Z,95140.42
2018-06-30T22:08:12.383Z,95146.22
2018-06-30T22:13:15.711Z,95142.39
2018-06-30T22:18:19.082Z,95137.99
2018-06-30T22:23:22.374Z,95133.97
2018-06-30T22:28:25.710Z,95128.83
